sensor_id;sensor_type;location;lat;lon;timestamp;pressure;altitude;pressure_sealevel;temperature;humidity
69239;BME280;56349;51.816;-0.026;2023-03-26T00:02:19;99770.49;;;28.15;27.81
69239;BME280;56349;51.816;-0.026;2023-03-26T00:04:45;99764.65;;;28.11;27.81
69239;BME280;56349;51.816;-0.026;2023-03-26T00:07:11;99762.05;;;28.11;27.77
69239;BME280;56349;51.816;-0.026;2023-03-26T00:09:36;99759.20;;;28.32;27.74
69239;BME280;56349;51.816;-0.026;2023-03-26T00:12:03;99752.26;;;28.30;27.71
69239;BME280;56349;51.816;-0.026;2023-03-26T00:14:27;99745.68;;;28.05;27.70
69239;BME280;56349;51.816;-0.026;2023-03-26T00:16:53;99742.40;;;27.80;27.67
69239;BME280;56349;51.816;-0.026;2023-03-26T00:19:19;99741.94;;;27.99;27.67
69239;BME280;56349;51.816;-0.026;2023-03-26T00:21:45;99740.55;;;27.98;27.66
69239;BME280;56349;51.816;-0.026;2023-03-26T00:24:12;99740.35;;;27.98;27.62
69239;BME280;56349;51.816;-0.026;2023-03-26T00:26:37;99738.59;;;28.18;27.62
69239;BME280;56349;51.816;-0.026;2023-03-26T00:29:03;99730.77;;;28.13;27.65
69239;BME280;56349;51.816;-0.026;2023-03-26T00:31:28;99724.95;;;28.09;27.65
69239;BME280;56349;51.816;-0.026;2023-03-26T00:33:54;99714.31;;;28.05;27.65
69239;BME280;56349;51.816;-0.026;2023-03-26T00:36:19;99712.47;;;27.79;27.66
69239;BME280;56349;51.816;-0.026;2023-03-26T00:38:45;99712.54;;;27.99;27.67
69239;BME280;56349;51.816;-0.026;2023-03-26T00:41:11;99704.46;;;27.97;27.67
69239;BME280;56349;51.816;-0.026;2023-03-26T00:43:35;99701.52;;;27.94;27.67
69239;BME280;56349;51.816;-0.026;2023-03-26T00:46:00;99700.60;;;27.89;27.69
69239;BME280;56349;51.816;-0.026;2023-03-26T00:48:26;99690.60;;;27.84;27.69
69239;BME280;56349;51.816;-0.026;2023-03-26T00:50:52;99687.18;;;27.81;27.72
69239;BME280;56349;51.816;-0.026;2023-03-26T00:53:18;99684.58;;;27.79;27.72
69239;BME280;56349;51.816;-0.026;2023-03-26T00:55:45;99677.76;;;27.77;27.71
69239;BME280;56349;51.816;-0.026;2023-03-26T00:58:09;99675.32;;;27.75;27.71
69239;BME280;56349;51.816;-0.026;2023-03-26T01:00:36;99671.68;;;27.71;27.73
69239;BME280;56349;51.816;-0.026;2023-03-26T01:03:00;99671.04;;;27.69;27.73
69239;BME280;56349;51.816;-0.026;2023-03-26T01:07:55;99664.17;;;27.65;27.72
69239;BME280;56349;51.816;-0.026;2023-03-26T01:10:16;99659.26;;;27.64;27.71
69239;BME280;56349;51.816;-0.026;2023-03-26T01:12:42;99654.85;;;27.63;27.70
69239;BME280;56349;51.816;-0.026;2023-03-26T01:15:09;99649.48;;;27.58;27.73
69239;BME280;56349;51.816;-0.026;2023-03-26T01:17:34;99646.96;;;27.57;27.73
69239;BME280;56349;51.816;-0.026;2023-03-26T01:20:06;99643.97;;;27.56;27.72
69239;BME280;56349;51.816;-0.026;2023-03-26T01:22:25;99638.14;;;27.54;27.72
69239;BME280;56349;51.816;-0.026;2023-03-26T01:24:51;99635.19;;;27.54;27.70
69239;BME280;56349;51.816;-0.026;2023-03-26T01:27:24;99639.19;;;27.79;27.68
69239;BME280;56349;51.816;-0.026;2023-03-26T01:29:44;99638.58;;;27.48;27.71
69239;BME280;56349;51.816;-0.026;2023-03-26T01:32:17;99634.12;;;27.45;27.72
69239;BME280;56349;51.816;-0.026;2023-03-26T01:34:42;99627.87;;;27.67;27.74
69239;BME280;56349;51.816;-0.026;2023-03-26T01:37:11;99624.61;;;27.38;27.75
69239;BME280;56349;51.816;-0.026;2023-03-26T01:39:27;99619.75;;;27.36;27.74
69239;BME280;56349;51.816;-0.026;2023-03-26T01:41:51;99617.62;;;27.36;27.72
69239;BME280;56349;51.816;-0.026;2023-03-26T01:44:19;99610.42;;;27.32;27.73
69239;BME280;56349;51.816;-0.026;2023-03-26T01:46:41;99605.87;;;27.29;27.75
69239;BME280;56349;51.816;-0.026;2023-03-26T01:49:06;99597.30;;;27.54;27.72
69239;BME280;56349;51.816;-0.026;2023-03-26T01:51:32;99594.46;;;27.52;27.74
69239;BME280;56349;51.816;-0.026;2023-03-26T01:53:56;99588.71;;;27.25;27.73
69239;BME280;56349;51.816;-0.026;2023-03-26T01:56:25;99584.78;;;27.50;27.72
69239;BME280;56349;51.816;-0.026;2023-03-26T01:59:00;99582.91;;;27.23;27.71
69239;BME280;56349;51.816;-0.026;2023-03-26T02:01:19;99579.06;;;27.49;27.71
69239;BME280;56349;51.816;-0.026;2023-03-26T02:03:42;99574.35;;;27.70;27.70
69239;BME280;56349;51.816;-0.026;2023-03-26T02:06:14;99570.06;;;27.45;27.71
69239;BME280;56349;51.816;-0.026;2023-03-26T02:08:33;99566.44;;;27.14;27.73
69239;BME280;56349;51.816;-0.026;2023-03-26T02:10:57;99561.84;;;27.12;27.73
69239;BME280;56349;51.816;-0.026;2023-03-26T02:13:22;99554.12;;;27.37;27.73
69239;BME280;56349;51.816;-0.026;2023-03-26T02:15:55;99550.38;;;27.35;27.72
69239;BME280;56349;51.816;-0.026;2023-03-26T02:18:13;99546.97;;;27.32;27.73
69239;BME280;56349;51.816;-0.026;2023-03-26T02:20:39;99543.92;;;27.29;27.75
69239;BME280;56349;51.816;-0.026;2023-03-26T02:23:05;99540.00;;;26.99;27.75
69239;BME280;56349;51.816;-0.026;2023-03-26T02:25:31;99533.72;;;27.24;27.74
69239;BME280;56349;51.816;-0.026;2023-03-26T02:27:57;99529.58;;;26.95;27.72
69239;BME280;56349;51.816;-0.026;2023-03-26T02:30:24;99524.29;;;27.16;27.71
69239;BME280;56349;51.816;-0.026;2023-03-26T02:32:47;99521.23;;;27.08;27.72
69239;BME280;56349;51.816;-0.026;2023-03-26T02:35:13;99516.32;;;26.96;27.74
69239;BME280;56349;51.816;-0.026;2023-03-26T02:37:44;99510.34;;;26.89;27.71
69239;BME280;56349;51.816;-0.026;2023-03-26T02:40:07;99508.63;;;26.79;27.70
69239;BME280;56349;51.816;-0.026;2023-03-26T02:42:31;99505.38;;;26.86;27.73
69239;BME280;56349;51.816;-0.026;2023-03-26T02:44:57;99503.18;;;26.69;27.79
69239;BME280;56349;51.816;-0.026;2023-03-26T02:47:27;99500.46;;;26.47;27.92
69239;BME280;56349;51.816;-0.026;2023-03-26T02:49:49;99498.54;;;26.24;28.06
69239;BME280;56349;51.816;-0.026;2023-03-26T02:52:15;99491.58;;;26.25;28.25
69239;BME280;56349;51.816;-0.026;2023-03-26T02:54:40;99492.33;;;25.62;28.55
69239;BME280;56349;51.816;-0.026;2023-03-26T02:57:06;99495.38;;;25.77;28.82
69239;BME280;56349;51.816;-0.026;2023-03-26T02:59:31;99489.08;;;25.69;29.08
69239;BME280;56349;51.816;-0.026;2023-03-26T03:01:57;99485.27;;;25.41;29.33
69239;BME280;56349;51.816;-0.026;2023-03-26T03:04:24;99481.53;;;25.41;29.55
69239;BME280;56349;51.816;-0.026;2023-03-26T03:06:48;99482.19;;;25.17;29.79
69239;BME280;56349;51.816;-0.026;2023-03-26T03:09:14;99478.21;;;24.93;29.99
69239;BME280;56349;51.816;-0.026;2023-03-26T03:11:40;99475.32;;;24.71;30.21
69239;BME280;56349;51.816;-0.026;2023-03-26T03:14:05;99471.29;;;24.49;30.42
69239;BME280;56349;51.816;-0.026;2023-03-26T03:16:31;99468.23;;;24.48;30.66
69239;BME280;56349;51.816;-0.026;2023-03-26T03:18:56;99462.95;;;24.46;30.91
69239;BME280;56349;51.816;-0.026;2023-03-26T03:21:23;99461.86;;;24.00;31.13
69239;BME280;56349;51.816;-0.026;2023-03-26T03:23:47;99456.88;;;24.00;31.36
69239;BME280;56349;51.816;-0.026;2023-03-26T03:26:15;99455.27;;;24.07;31.57
69239;BME280;56349;51.816;-0.026;2023-03-26T03:28:39;99453.83;;;23.60;31.80
69239;BME280;56349;51.816;-0.026;2023-03-26T03:31:05;99452.71;;;23.43;32.03
69239;BME280;56349;51.816;-0.026;2023-03-26T03:33:31;99453.69;;;23.54;32.27
69239;BME280;56349;51.816;-0.026;2023-03-26T03:35:56;99448.94;;;23.40;32.51
69239;BME280;56349;51.816;-0.026;2023-03-26T03:38:22;99449.71;;;23.32;32.71
69239;BME280;56349;51.816;-0.026;2023-03-26T03:40:48;99448.84;;;23.29;32.83
69239;BME280;56349;51.816;-0.026;2023-03-26T03:43:19;99449.35;;;23.29;32.93
69239;BME280;56349;51.816;-0.026;2023-03-26T03:45:40;99446.48;;;23.52;32.99
69239;BME280;56349;51.816;-0.026;2023-03-26T03:48:06;99444.70;;;23.07;32.99
69239;BME280;56349;51.816;-0.026;2023-03-26T03:50:32;99442.50;;;23.38;32.96
69239;BME280;56349;51.816;-0.026;2023-03-26T03:53:03;99441.67;;;23.45;32.89
69239;BME280;56349;51.816;-0.026;2023-03-26T03:55:29;99441.94;;;23.68;32.85
69239;BME280;56349;51.816;-0.026;2023-03-26T03:57:50;99439.96;;;23.69;32.80
69239;BME280;56349;51.816;-0.026;2023-03-26T04:00:18;99435.27;;;23.44;32.79
69239;BME280;56349;51.816;-0.026;2023-03-26T04:02:42;99435.33;;;23.39;32.80
69239;BME280;56349;51.816;-0.026;2023-03-26T04:05:12;99435.69;;;23.33;32.83
69239;BME280;56349;51.816;-0.026;2023-03-26T04:07:33;99436.53;;;23.48;32.87
69239;BME280;56349;51.816;-0.026;2023-03-26T04:10:07;99435.07;;;23.39;32.94
69239;BME280;56349;51.816;-0.026;2023-03-26T04:12:31;99434.01;;;23.28;33.02
69239;BME280;56349;51.816;-0.026;2023-03-26T04:14:50;99430.61;;;23.15;33.11
69239;BME280;56349;51.816;-0.026;2023-03-26T04:17:17;99427.18;;;23.03;33.21
69239;BME280;56349;51.816;-0.026;2023-03-26T04:19:42;99426.22;;;22.92;33.31
69239;BME280;56349;51.816;-0.026;2023-03-26T04:22:09;99425.29;;;22.79;33.44
69239;BME280;56349;51.816;-0.026;2023-03-26T04:24:33;99425.50;;;22.66;33.55
69239;BME280;56349;51.816;-0.026;2023-03-26T04:26:59;99430.05;;;22.55;33.69
69239;BME280;56349;51.816;-0.026;2023-03-26T04:29:24;99431.30;;;22.71;33.79
69239;BME280;56349;51.816;-0.026;2023-03-26T04:31:52;99429.33;;;22.61;33.91
69239;BME280;56349;51.816;-0.026;2023-03-26T04:34:20;99426.60;;;22.52;34.00
69239;BME280;56349;51.816;-0.026;2023-03-26T04:36:42;99424.88;;;22.43;34.10
69239;BME280;56349;51.816;-0.026;2023-03-26T04:39:11;99424.49;;;22.34;34.20
69239;BME280;56349;51.816;-0.026;2023-03-26T04:41:33;99424.21;;;21.98;34.32
69239;BME280;56349;51.816;-0.026;2023-03-26T04:43:59;99422.68;;;22.33;34.46
69239;BME280;56349;51.816;-0.026;2023-03-26T04:46:25;99419.30;;;22.22;34.60
69239;BME280;56349;51.816;-0.026;2023-03-26T04:48:52;99416.18;;;21.90;34.71
69239;BME280;56349;51.816;-0.026;2023-03-26T04:51:17;99415.98;;;22.04;34.79
69239;BME280;56349;51.816;-0.026;2023-03-26T04:53:49;99415.99;;;21.94;34.94
69239;BME280;56349;51.816;-0.026;2023-03-26T04:56:13;99418.61;;;21.85;35.14
69239;BME280;56349;51.816;-0.026;2023-03-26T04:58:33;99419.16;;;21.77;35.38
69239;BME280;56349;51.816;-0.026;2023-03-26T05:00:59;99423.21;;;21.71;35.63
69239;BME280;56349;51.816;-0.026;2023-03-26T05:03:24;99424.57;;;21.66;35.88
69239;BME280;56349;51.816;-0.026;2023-03-26T05:05:50;99424.88;;;21.60;36.12
69239;BME280;56349;51.816;-0.026;2023-03-26T05:08:16;99424.82;;;21.77;36.35
69239;BME280;56349;51.816;-0.026;2023-03-26T05:10:43;99422.70;;;21.73;36.56
69239;BME280;56349;51.816;-0.026;2023-03-26T05:13:08;99425.45;;;21.73;36.76
69239;BME280;56349;51.816;-0.026;2023-03-26T05:15:34;99426.35;;;21.51;36.94
69239;BME280;56349;51.816;-0.026;2023-03-26T05:18:05;99427.38;;;21.52;37.11
69239;BME280;56349;51.816;-0.026;2023-03-26T05:20:28;99427.32;;;21.54;37.28
69239;BME280;56349;51.816;-0.026;2023-03-26T05:22:53;99427.82;;;21.59;37.38
69239;BME280;56349;51.816;-0.026;2023-03-26T05:25:18;99428.10;;;21.66;37.48
69239;BME280;56349;51.816;-0.026;2023-03-26T05:27:43;99427.66;;;21.72;37.59
69239;BME280;56349;51.816;-0.026;2023-03-26T05:30:09;99428.46;;;21.75;37.67
69239;BME280;56349;51.816;-0.026;2023-03-26T05:32:34;99424.71;;;21.99;37.77
69239;BME280;56349;51.816;-0.026;2023-03-26T05:35:00;99427.28;;;22.02;37.86
69239;BME280;56349;51.816;-0.026;2023-03-26T05:37:27;99427.46;;;21.85;37.91
69239;BME280;56349;51.816;-0.026;2023-03-26T05:39:53;99431.29;;;21.90;37.96
69239;BME280;56349;51.816;-0.026;2023-03-26T05:42:18;99433.82;;;22.00;37.94
69239;BME280;56349;51.816;-0.026;2023-03-26T05:44:44;99435.69;;;22.04;37.96
69239;BME280;56349;51.816;-0.026;2023-03-26T05:47:10;99433.84;;;22.09;37.97
69239;BME280;56349;51.816;-0.026;2023-03-26T05:49:36;99435.00;;;22.12;38.00
69239;BME280;56349;51.816;-0.026;2023-03-26T05:52:02;99435.63;;;22.13;38.03
69239;BME280;56349;51.816;-0.026;2023-03-26T05:54:28;99436.44;;;22.15;38.07
69239;BME280;56349;51.816;-0.026;2023-03-26T05:56:53;99433.31;;;22.20;38.08
69239;BME280;56349;51.816;-0.026;2023-03-26T05:59:19;99429.73;;;21.77;38.02
69239;BME280;56349;51.816;-0.026;2023-03-26T06:01:50;99427.67;;;22.52;38.03
69239;BME280;56349;51.816;-0.026;2023-03-26T06:04:11;99428.18;;;22.32;38.04
69239;BME280;56349;51.816;-0.026;2023-03-26T06:06:35;99426.61;;;22.15;38.03
69239;BME280;56349;51.816;-0.026;2023-03-26T06:09:01;99428.44;;;22.37;38.05
69239;BME280;56349;51.816;-0.026;2023-03-26T06:11:27;99432.94;;;22.39;38.06
69239;BME280;56349;51.816;-0.026;2023-03-26T06:13:53;99437.08;;;22.42;38.04
69239;BME280;56349;51.816;-0.026;2023-03-26T06:16:19;99434.67;;;22.43;38.04
69239;BME280;56349;51.816;-0.026;2023-03-26T06:18:45;99437.52;;;22.45;38.01
69239;BME280;56349;51.816;-0.026;2023-03-26T06:21:10;99438.72;;;22.24;37.97
69239;BME280;56349;51.816;-0.026;2023-03-26T06:23:36;99439.14;;;22.47;37.93
69239;BME280;56349;51.816;-0.026;2023-03-26T06:26:03;99441.31;;;22.48;37.87
69239;BME280;56349;51.816;-0.026;2023-03-26T06:28:28;99442.69;;;22.28;37.79
69239;BME280;56349;51.816;-0.026;2023-03-26T06:30:59;99441.12;;;22.52;37.66
69239;BME280;56349;51.816;-0.026;2023-03-26T06:33:19;99444.53;;;22.56;37.52
69239;BME280;56349;51.816;-0.026;2023-03-26T06:35:45;99446.73;;;22.59;37.36
69239;BME280;56349;51.816;-0.026;2023-03-26T06:38:11;99446.67;;;22.58;37.36
69239;BME280;56349;51.816;-0.026;2023-03-26T06:40:36;99452.26;;;22.57;37.28
69239;BME280;56349;51.816;-0.026;2023-03-26T06:43:03;99454.41;;;22.53;37.31
69239;BME280;56349;51.816;-0.026;2023-03-26T06:45:28;99458.01;;;22.52;37.31
69239;BME280;56349;51.816;-0.026;2023-03-26T06:47:54;99462.03;;;22.52;37.39
69239;BME280;56349;51.816;-0.026;2023-03-26T06:50:18;99464.98;;;22.55;37.47
69239;BME280;56349;51.816;-0.026;2023-03-26T06:52:44;99468.47;;;22.62;37.49
69239;BME280;56349;51.816;-0.026;2023-03-26T06:55:11;99471.27;;;22.50;37.43
69239;BME280;56349;51.816;-0.026;2023-03-26T06:57:36;99476.91;;;22.66;37.31
69239;BME280;56349;51.816;-0.026;2023-03-26T07:00:01;99480.51;;;22.59;37.12
69239;BME280;56349;51.816;-0.026;2023-03-26T07:02:26;99486.46;;;22.81;36.91
69239;BME280;56349;51.816;-0.026;2023-03-26T07:04:52;99492.26;;;23.06;36.64
69239;BME280;56349;51.816;-0.026;2023-03-26T07:07:19;99494.66;;;23.11;36.36
69239;BME280;56349;51.816;-0.026;2023-03-26T07:09:44;99498.78;;;23.07;36.09
69239;BME280;56349;51.816;-0.026;2023-03-26T07:12:10;99507.36;;;23.61;35.82
69239;BME280;56349;51.816;-0.026;2023-03-26T07:14:41;99513.37;;;23.66;35.44
69239;BME280;56349;51.816;-0.026;2023-03-26T07:17:01;99515.65;;;23.69;35.11
69239;BME280;56349;51.816;-0.026;2023-03-26T07:19:27;99517.42;;;23.97;34.76
69239;BME280;56349;51.816;-0.026;2023-03-26T07:21:55;99525.28;;;24.21;34.47
69239;BME280;56349;51.816;-0.026;2023-03-26T07:24:25;99530.67;;;24.23;34.18
69239;BME280;56349;51.816;-0.026;2023-03-26T07:26:52;99534.79;;;24.46;33.87
69239;BME280;56349;51.816;-0.026;2023-03-26T07:29:15;99537.57;;;24.69;33.58
69239;BME280;56349;51.816;-0.026;2023-03-26T07:31:40;99541.17;;;24.93;33.27
69239;BME280;56349;51.816;-0.026;2023-03-26T07:34:09;99545.10;;;25.13;33.00
69239;BME280;56349;51.816;-0.026;2023-03-26T07:36:30;99547.59;;;25.06;32.74
69239;BME280;56349;51.816;-0.026;2023-03-26T07:39:05;99552.43;;;25.25;32.47
69239;BME280;56349;51.816;-0.026;2023-03-26T07:41:23;99550.82;;;25.21;32.22
69239;BME280;56349;51.816;-0.026;2023-03-26T07:46:11;99555.92;;;25.50;31.79
69239;BME280;56349;51.816;-0.026;2023-03-26T07:48:39;99561.46;;;25.62;31.52
69239;BME280;56349;51.816;-0.026;2023-03-26T07:51:01;99564.68;;;25.66;31.35
69239;BME280;56349;51.816;-0.026;2023-03-26T07:53:27;99568.73;;;25.44;31.21
69239;BME280;56349;51.816;-0.026;2023-03-26T07:55:57;99573.15;;;25.62;31.09
69239;BME280;56349;51.816;-0.026;2023-03-26T07:58:32;99575.89;;;25.76;31.01
69239;BME280;56349;51.816;-0.026;2023-03-26T08:00:47;99576.84;;;25.44;30.99
69239;BME280;56349;51.816;-0.026;2023-03-26T08:03:16;99579.73;;;25.57;30.92
69239;BME280;56349;51.816;-0.026;2023-03-26T08:05:34;99577.32;;;25.27;30.86
69239;BME280;56349;51.816;-0.026;2023-03-26T08:08:06;99576.45;;;24.99;30.77
69239;BME280;56349;51.816;-0.026;2023-03-26T08:10:32;99580.30;;;24.89;30.74
69239;BME280;56349;51.816;-0.026;2023-03-26T08:12:57;99584.47;;;25.41;30.82
69239;BME280;56349;51.816;-0.026;2023-03-26T08:15:22;99586.09;;;24.99;30.93
69239;BME280;56349;51.816;-0.026;2023-03-26T08:17:43;99590.03;;;24.84;31.02
69239;BME280;56349;51.816;-0.026;2023-03-26T08:20:13;99589.17;;;24.95;31.11
69239;BME280;56349;51.816;-0.026;2023-03-26T08:22:33;99595.05;;;24.80;31.20
69239;BME280;56349;51.816;-0.026;2023-03-26T08:25:04;99601.00;;;24.64;31.30
69239;BME280;56349;51.816;-0.026;2023-03-26T08:27:24;99603.57;;;24.46;31.42
69239;BME280;56349;51.816;-0.026;2023-03-26T08:29:52;99604.38;;;24.32;31.51
69239;BME280;56349;51.816;-0.026;2023-03-26T08:32:15;99611.03;;;24.36;31.62
69239;BME280;56349;51.816;-0.026;2023-03-26T08:34:38;99612.54;;;24.19;31.77
69239;BME280;56349;51.816;-0.026;2023-03-26T08:37:04;99614.38;;;24.01;31.99
69239;BME280;56349;51.816;-0.026;2023-03-26T08:39:30;99617.79;;;23.86;32.10
69239;BME280;56349;51.816;-0.026;2023-03-26T08:44:35;99632.48;;;23.79;32.32
69239;BME280;56349;51.816;-0.026;2023-03-26T08:47:04;99635.83;;;23.67;32.44
69239;BME280;56349;51.816;-0.026;2023-03-26T08:49:26;99638.23;;;23.54;32.56
69239;BME280;56349;51.816;-0.026;2023-03-26T08:56:35;99650.19;;;23.45;32.82
69239;BME280;56349;51.816;-0.026;2023-03-26T09:01:30;99653.49;;;23.40;33.07
69239;BME280;56349;51.816;-0.026;2023-03-26T09:04:05;99659.08;;;22.81;33.17
69239;BME280;56349;51.816;-0.026;2023-03-26T09:06:23;99663.49;;;22.96;33.27
69239;BME280;56349;51.816;-0.026;2023-03-26T09:11:17;99668.03;;;22.65;33.58
69239;BME280;56349;51.816;-0.026;2023-03-26T09:13:38;99675.61;;;22.74;33.76
69239;BME280;56349;51.816;-0.026;2023-03-26T09:18:32;99686.04;;;22.74;34.03
69239;BME280;56349;51.816;-0.026;2023-03-26T09:23:23;99692.97;;;22.64;34.20
69239;BME280;56349;51.816;-0.026;2023-03-26T09:35:32;99710.96;;;22.26;34.46
69239;BME280;56349;51.816;-0.026;2023-03-26T09:37:55;99712.74;;;22.52;34.49
69239;BME280;56349;51.816;-0.026;2023-03-26T09:40:15;99720.72;;;22.54;34.52
69239;BME280;56349;51.816;-0.026;2023-03-26T09:42:43;99726.84;;;22.27;34.51
69239;BME280;56349;51.816;-0.026;2023-03-26T09:47:38;99733.93;;;22.18;34.56
69239;BME280;56349;51.816;-0.026;2023-03-26T09:49:55;99747.16;;;22.55;34.69
69239;BME280;56349;51.816;-0.026;2023-03-26T09:55:00;99758.99;;;22.38;34.82
69239;BME280;56349;51.816;-0.026;2023-03-26T09:57:14;99764.25;;;22.13;34.85
69239;BME280;56349;51.816;-0.026;2023-03-26T09:59:44;99768.85;;;22.12;34.97
69239;BME280;56349;51.816;-0.026;2023-03-26T10:02:10;99770.98;;;22.31;35.15
69239;BME280;56349;51.816;-0.026;2023-03-26T10:04:32;99775.24;;;21.81;35.40
69239;BME280;56349;51.816;-0.026;2023-03-26T10:06:54;99776.32;;;22.23;35.60
69239;BME280;56349;51.816;-0.026;2023-03-26T10:09:24;99781.26;;;21.89;35.95
69239;BME280;56349;51.816;-0.026;2023-03-26T10:14:12;99798.10;;;21.82;36.18
69239;BME280;56349;51.816;-0.026;2023-03-26T10:16:40;99801.15;;;22.03;36.19
69239;BME280;56349;51.816;-0.026;2023-03-26T10:19:07;99812.11;;;21.97;36.24
69239;BME280;56349;51.816;-0.026;2023-03-26T10:21:29;99818.55;;;21.87;36.38
69239;BME280;56349;51.816;-0.026;2023-03-26T10:23:59;99825.74;;;22.00;36.48
69239;BME280;56349;51.816;-0.026;2023-03-26T10:26:27;99831.24;;;21.74;36.47
69239;BME280;56349;51.816;-0.026;2023-03-26T10:28:54;99838.52;;;21.88;36.52
69239;BME280;56349;51.816;-0.026;2023-03-26T10:33:39;99851.60;;;21.71;36.61
69239;BME280;56349;51.816;-0.026;2023-03-26T10:36:10;99860.33;;;21.62;36.69
69239;BME280;56349;51.816;-0.026;2023-03-26T10:38:31;99856.53;;;21.34;36.72
69239;BME280;56349;51.816;-0.026;2023-03-26T10:40:56;99872.13;;;21.29;36.73
69239;BME280;56349;51.816;-0.026;2023-03-26T10:45:50;99887.46;;;21.41;36.82
69239;BME280;56349;51.816;-0.026;2023-03-26T10:48:19;99896.69;;;21.14;36.88
69239;BME280;56349;51.816;-0.026;2023-03-26T10:50:38;99905.56;;;21.11;36.92
69239;BME280;56349;51.816;-0.026;2023-03-26T10:53:00;99916.96;;;21.31;36.95
69239;BME280;56349;51.816;-0.026;2023-03-26T10:55:27;99925.06;;;21.56;36.99
69239;BME280;56349;51.816;-0.026;2023-03-26T10:57:50;99927.43;;;21.29;37.03
69239;BME280;56349;51.816;-0.026;2023-03-26T11:00:16;99930.06;;;21.26;37.08
69239;BME280;56349;51.816;-0.026;2023-03-26T11:02:45;99937.09;;;21.50;37.13
69239;BME280;56349;51.816;-0.026;2023-03-26T11:07:34;99949.19;;;21.05;37.12
69239;BME280;56349;51.816;-0.026;2023-03-26T11:10:01;99957.79;;;21.28;37.11
69239;BME280;56349;51.816;-0.026;2023-03-26T11:12:27;99963.12;;;21.55;37.11
69239;BME280;56349;51.816;-0.026;2023-03-26T11:14:55;99972.43;;;21.31;37.09
69239;BME280;56349;51.816;-0.026;2023-03-26T11:17:19;99977.16;;;21.07;37.08
69239;BME280;56349;51.816;-0.026;2023-03-26T11:19:43;99983.72;;;21.54;37.12
69239;BME280;56349;51.816;-0.026;2023-03-26T11:22:13;99987.91;;;21.52;37.12
69239;BME280;56349;51.816;-0.026;2023-03-26T11:24:44;99994.55;;;21.02;37.14
69239;BME280;56349;51.816;-0.026;2023-03-26T11:26:59;99999.61;;;21.02;37.14
69239;BME280;56349;51.816;-0.026;2023-03-26T11:29:33;100004.49;;;21.54;37.07
69239;BME280;56349;51.816;-0.026;2023-03-26T11:31:55;100009.01;;;21.24;37.10
69239;BME280;56349;51.816;-0.026;2023-03-26T11:34:16;100011.29;;;21.23;37.10
69239;BME280;56349;51.816;-0.026;2023-03-26T11:36:43;100016.98;;;21.28;37.03
69239;BME280;56349;51.816;-0.026;2023-03-26T11:39:09;100021.49;;;21.54;37.01
69239;BME280;56349;51.816;-0.026;2023-03-26T11:41:30;100025.29;;;21.25;37.02
69239;BME280;56349;51.816;-0.026;2023-03-26T11:43:57;100032.99;;;21.23;37.04
69239;BME280;56349;51.816;-0.026;2023-03-26T11:46:22;100040.01;;;21.52;37.03
69239;BME280;56349;51.816;-0.026;2023-03-26T11:48:49;100048.02;;;21.30;37.06
69239;BME280;56349;51.816;-0.026;2023-03-26T11:51:17;100055.70;;;21.14;37.15
69239;BME280;56349;51.816;-0.026;2023-03-26T11:53:39;100063.15;;;21.70;37.27
69239;BME280;56349;51.816;-0.026;2023-03-26T11:56:07;100073.52;;;21.45;36.76
69239;BME280;56349;51.816;-0.026;2023-03-26T11:58:34;100080.43;;;21.24;37.31
69239;BME280;56349;51.816;-0.026;2023-03-26T12:00:56;100089.07;;;21.35;37.67
69239;BME280;56349;51.816;-0.026;2023-03-26T12:03:22;100096.48;;;21.54;38.02
69239;BME280;56349;51.816;-0.026;2023-03-26T12:05:50;100104.80;;;21.78;38.08
69239;BME280;56349;51.816;-0.026;2023-03-26T12:08:18;100112.25;;;21.82;38.04
69239;BME280;56349;51.816;-0.026;2023-03-26T12:10:40;100117.17;;;22.31;37.74
69239;BME280;56349;51.816;-0.026;2023-03-26T12:15:30;100129.40;;;22.44;37.29
69239;BME280;56349;51.816;-0.026;2023-03-26T12:17:56;100133.41;;;22.77;36.94
69239;BME280;56349;51.816;-0.026;2023-03-26T12:22:45;100146.94;;;22.89;36.28
69239;BME280;56349;51.816;-0.026;2023-03-26T12:25:16;100149.84;;;23.22;35.94
69239;BME280;56349;51.816;-0.026;2023-03-26T12:27:39;100152.88;;;23.77;35.58
69239;BME280;56349;51.816;-0.026;2023-03-26T12:30:09;100157.60;;;23.76;35.28
69239;BME280;56349;51.816;-0.026;2023-03-26T12:32:31;100162.18;;;23.78;34.99
69239;BME280;56349;51.816;-0.026;2023-03-26T12:34:57;100168.84;;;23.81;34.76
69239;BME280;56349;51.816;-0.026;2023-03-26T12:39:43;100183.53;;;24.25;34.18
69239;BME280;56349;51.816;-0.026;2023-03-26T12:44:42;100199.61;;;24.38;33.72
69239;BME280;56349;51.816;-0.026;2023-03-26T12:47:09;100201.75;;;24.57;33.47
69239;BME280;56349;51.816;-0.026;2023-03-26T12:49:25;100207.69;;;25.08;33.17
69239;BME280;56349;51.816;-0.026;2023-03-26T12:52:07;100211.15;;;24.96;32.93
69239;BME280;56349;51.816;-0.026;2023-03-26T12:54:27;100215.82;;;25.05;32.76
69239;BME280;56349;51.816;-0.026;2023-03-26T12:56:47;100224.46;;;25.18;32.57
69239;BME280;56349;51.816;-0.026;2023-03-26T12:59:20;100223.70;;;25.07;32.23
69239;BME280;56349;51.816;-0.026;2023-03-26T13:01:42;100222.12;;;25.17;31.98
69239;BME280;56349;51.816;-0.026;2023-03-26T13:04:07;100223.06;;;25.25;31.75
69239;BME280;56349;51.816;-0.026;2023-03-26T13:06:36;100227.42;;;25.38;31.51
69239;BME280;56349;51.816;-0.026;2023-03-26T13:09:14;100228.78;;;25.45;31.31
69239;BME280;56349;51.816;-0.026;2023-03-26T13:11:20;100233.00;;;25.50;31.16
69239;BME280;56349;51.816;-0.026;2023-03-26T13:13:53;100238.99;;;25.60;30.96
69239;BME280;56349;51.816;-0.026;2023-03-26T13:16:11;100241.61;;;25.68;30.80
69239;BME280;56349;51.816;-0.026;2023-03-26T13:18:43;100247.33;;;25.55;30.63
69239;BME280;56349;51.816;-0.026;2023-03-26T13:21:03;100248.77;;;25.71;30.39
69239;BME280;56349;51.816;-0.026;2023-03-26T13:23:39;100254.64;;;25.85;30.18
69239;BME280;56349;51.816;-0.026;2023-03-26T13:25:57;100259.77;;;25.89;30.11
69239;BME280;56349;51.816;-0.026;2023-03-26T13:28:24;100263.36;;;25.71;30.01
69239;BME280;56349;51.816;-0.026;2023-03-26T13:30:49;100269.20;;;25.84;29.78
69239;BME280;56349;51.816;-0.026;2023-03-26T13:35:38;100279.84;;;25.95;29.54
69239;BME280;56349;51.816;-0.026;2023-03-26T13:38:07;100286.59;;;26.05;29.43